Tiempo atmosférico en la estación meteorológica de Amieva, Panizales, Asturias (360 m.)



Fecha
DESCASC
Temp. máxima en grados centígrados (hora)
DESCASC
Temp. mínima en grados centígrados (hora)
DESCASC
Temp. media en grados centígrados
DESCASC
Racha de viento máxima en m/sg (hora)
DESCASC
Velocidad máxima media en intervalos de 10 minutos(hora)
DESCASC
Precipitaciones diarias en mm
DESCASC
Precipitaciones de 00:00 a 06:00 en mm
DESCASC
Precipitaciones de 06:00 a 12:00 en mm
DESCASC
Precipitaciones de 12:00 a 18:00 en mm
DESCASC
Precipitaciones de 18:00 a 24:00 en mm
DESCASC
20-09-2020 23 (14:10) 11 (07:50) 17 6.39 (13:40) 3.33 (13:30) 0.2 0 0.2 0 0
19-09-2020 19.7 (17:10) 13 (23:59) 16.4 8.61 (00:10) 3.89 (03:10) 7.2 2.8 1 3.4 0
18-09-2020 26.5 (17:00) 15.5 (09:50) 21 12.5 (12:30) 5.28 (12:20) 5 0.2 4.4 0 0.4
17-09-2020 26.8 (16:00) 17.4 (00:00) 22.1 5.28 (06:30) 2.22 (06:30) 0.8 0.8 0 0 0
16-09-2020 27.5 (16:20) 12.9 (00:00) 20.2 6.11 (16:30) 3.06 (16:20) 0 0 0 0 0
15-09-2020 26.2 (16:10) 14.2 (00:00) 20.2 6.67 (15:50) 3.61 (15:50) 1.6 1.6 0 0 0
14-09-2020 29.8 (12:40) 16.4 (00:00) 23.1 8.33 (08:20) 3.61 (08:20) 2.2 0 0 0 2.2
13-09-2020 33.2 (16:50) 12.7 (00:00) 23 5.56 (15:50) 3.33 (16:40) 0 0 0 0 0
12-09-2020 26.9 (15:30) 13 (00:00) 19.9 6.39 (16:10) 3.33 (14:10) 0 0 0 0 0
11-09-2020 26.7 (16:20) 11.1 (00:00) 18.9 6.11 (17:50) 3.33 (14:20) 0.2 0 0.2 0 0
10-09-2020 26 (17:10) 11.5 (00:00) 18.8 6.67 (18:00) 3.33 (14:20) 0 0 0 0 0
09-09-2020 25.9 (16:30) 10.1 (00:00) 18 6.67 (16:20) 3.33 (14:00) 0.2 0 0.2 0 0
08-09-2020 24.3 (17:30) 8.2 (00:00) 16.2 7.22 (16:00) 3.33 (14:20) 0 0 0 0 0
07-09-2020 22.4 (17:00) 11.2 (08:00) 16.8 6.67 (16:20) 2.78 (17:50) 0.2 0.2 0 0 0
06-09-2020 17.7 (13:40) 13.4 (00:00) 15.6 6.11 (16:00) 3.06 (14:50) 1.6 1 0.6 0 0
05-09-2020 18.5 (02:40) 16 (00:00) 17.3 5 (15:20) 3.06 (15:30) 4 0.4 3.4 0.2 0
04-09-2020 32.5 (16:30) 13.1 (00:00) 22.8 6.11 (17:30) 2.5 (17:30) 0 0 0 0 0
03-09-2020 29.1 (15:30) 12.4 (00:00) 20.8 5.83 (14:50) 3.33 (14:50) 0 0 0 0 0
02-09-2020 24.8 (16:10) 11.4 (00:00) 18.1 6.39 (18:00) 3.61 (18:10) 0 0 0 0 0
01-09-2020 23.3 (14:20) 11 (00:00) 17.1 8.33 (14:10) 3.06 (12:50) 0 0 0 0 0
31-08-2020 23.9 (15:20) 6.6 (00:00) 15.2 6.67 (15:20) 2.78 (14:20) 0.2 0 0.2 0 0
30-08-2020 19.1 (15:40) 9 (00:00) 14.1 5.83 (15:50) 3.06 (15:50) 21.4 12 8.8 0.6 0
29-08-2020 14.7 (14:50) 11.2 (00:00) 12.9 5.83 (15:30) 2.5 (19:30) 50.6 0.4 8.8 26.8 14.6
28-08-2020 23.4 (16:30) 11.2 (00:00) 17.3 9.17 (15:00) 3.89 (14:50) 2.4 1.8 0.2 0 0.4
27-08-2020 27.9 (13:30) 17 (00:00) 22.4 8.06 (14:40) 3.61 (14:40) 0 0 0 0 0
26-08-2020 28.3 (15:20) 16.8 (00:00) 22.5 7.22 (16:10) 3.33 (16:20) 0 0 0 0 0
25-08-2020 29 (15:30) 13.5 (00:00) 21.3 7.5 (17:10) 3.33 (17:00) 0 0 0 0 0
24-08-2020 27 (17:10) 16 (00:00) 21.5 8.06 (15:50) 3.33 (16:50) 0 0 0 0 0

Gráficas

Temp. máximas Temp. mínimas Temp. medias Precipitaciones Rachas de viento máximas Velocidades máximas media en intervalos de 10 minutos

Datos horarios

Fecha y hora oficial Temperatura (ºC) Velocidad del viento (km/h) Dirección del viento Racha (km/h) Dirección de racha Precipitación (mm) Presión (hPa) Tendencia (hPa) Humedad (%)
2020-09-22 23:00:00 13.7 2 Nordeste 5 Norte 0 -- -- 100
2020-09-22 22:00:00 14.9 2 Nordeste 4 Sudoeste 0 -- -- 98
2020-09-22 21:00:00 16.2 3 Norte 14 Oeste 5.6 -- -- 97
2020-09-22 20:00:00 17.5 3 Oeste 10 Noroeste 0 -- -- 90
2020-09-22 19:00:00 18.4 4 Oeste 16 Sudoeste 0 -- -- 87
2020-09-22 18:00:00 20.5 8 Sudoeste 19 Sudoeste 0 -- -- 82
2020-09-22 17:00:00 19.6 6 Noroeste 13 Oeste 0 -- -- 81
2020-09-22 16:00:00 20.8 6 Sudoeste 19 Sudoeste 0 -- -- 77
2020-09-22 15:00:00 20.3 8 Sudoeste 21 Sudoeste 0 -- -- 77
2020-09-22 14:00:00 21.5 8 Sudoeste 17 Oeste 0 -- -- 79
2020-09-22 13:00:00 19.5 6 Sudoeste 11 Sudoeste 0 -- -- 82
2020-09-22 12:00:00 17 2 Sur 5 Sudeste 0 -- -- 93
2020-09-22 11:00:00 14.8 0 Calma 3 Sudoeste 0 -- -- 100
2020-09-22 10:00:00 13.4 0 Calma 4 Nordeste 0 -- -- 100
2020-09-22 09:00:00 12.4 2 Nordeste 4 Nordeste 0 -- -- 100
2020-09-22 08:00:00 10.9 0 Calma 4 Nordeste 0 -- -- 100
2020-09-22 07:00:00 11.4 0 Calma 5 Nordeste 0.2 -- -- 100
2020-09-22 06:00:00 11.7 0 Calma 5 Sur 0 -- -- 100
2020-09-22 05:00:00 12.5 0 Calma 4 Sur 0 -- -- 100
2020-09-22 04:00:00 12 3 Norte 5 Norte 0 -- -- 100
2020-09-22 03:00:00 12.6 2 Sudoeste 5 Sudoeste 0 -- -- 100
2020-09-22 02:00:00 12.7 2 Nordeste 5 Norte 0 -- -- 100
2020-09-22 01:00:00 13.2 0 Calma 5 Sur 0 -- -- 100
2020-09-22 00:00:00 14.4 3 Norte 5 Nordeste 0 -- -- 100
2020-09-21 23:00:00 15.2 0 Calma 4 Este 0 -- -- 100
2020-09-21 22:00:00 15.4 2 Norte 3 Nordeste 0 -- -- 99
2020-09-21 21:00:00 16.2 2 Nordeste 4 Nordeste 0 -- -- 98
2020-09-21 20:00:00 17.7 0 Calma 5 Sur 0 -- -- 93
2020-09-21 19:00:00 18 2 Sur 5 Sudoeste 0.4 -- -- 96
2020-09-21 18:00:00 17.3 0 Calma 5 Sudoeste 1 -- -- 96
2020-09-21 17:00:00 17.6 3 Sudoeste 11 Oeste 2.4 -- -- 96
2020-09-21 16:00:00 17.7 4 Oeste 18 Noroeste 0.8 -- -- 90
2020-09-21 15:00:00 20.4 5 Noroeste 22 Noroeste 0 -- -- 77
2020-09-21 14:00:00 21.3 9 Sudoeste 23 Sudoeste 0 -- -- 73
2020-09-21 13:00:00 22.3 10 Sudoeste 18 Sudoeste 0 -- -- 73
2020-09-21 12:00:00 19.8 6 Sudoeste 13 Sudoeste 0 -- -- 76
2020-09-21 11:00:00 17.5 4 Sudoeste 8 Sudoeste 0 -- -- 79
2020-09-21 10:00:00 15.4 0 Calma 5 Sur 0 -- -- 91
2020-09-21 09:00:00 13.9 2 Noroeste 6 Noroeste 0 -- -- 96
2020-09-21 08:00:00 13.8 0 Calma 5 Oeste 0 -- -- 100
2020-09-21 07:00:00 13 2 Oeste 6 Oeste 0 -- -- 100
2020-09-21 06:00:00 12.9 2 Norte 4 Norte 0 -- -- 100
2020-09-21 05:00:00 13.1 0 Calma 5 Nordeste 0 -- -- 100
2020-09-21 04:00:00 13.6 0 Calma 4 Nordeste 0 -- -- 100
2020-09-21 03:00:00 14.5 2 Norte 4 Norte 0 -- -- 98
2020-09-21 02:00:00 16 0 Calma 4 Nordeste 0 -- -- 99
2020-09-21 01:00:00 15.9 0 Calma 3 Sudoeste 0 -- -- 100
2020-09-21 00:00:00 15.6 0 Calma 4 Nordeste 0 -- -- 100
2020-09-20 23:00:00 15.7 0 Calma 4 Nordeste 0 -- -- 98
2020-09-20 22:00:00 16.3 2 Nordeste 4 Sudeste 0 -- -- 96
2020-09-20 21:00:00 16.9 0 Calma 9 Oeste 0 -- -- 94
2020-09-20 20:00:00 17.7 5 Norte 17 Oeste 0 -- -- 90
2020-09-20 19:00:00 19.2 5 Oeste 15 Oeste 0 -- -- 85
2020-09-20 18:00:00 19.8 5 Sudoeste 17 Noroeste 0 -- -- 84
2020-09-20 17:00:00 20.9 6 Sudoeste 14 Oeste 0 -- -- 79
2020-09-20 16:00:00 21.3 5 Sudoeste 12 Oeste 0 -- -- 78
2020-09-20 15:00:00 21.1 6 Oeste 19 Oeste 0 -- -- 72
2020-09-20 14:00:00 22.8 8 Sudoeste 23 Oeste 0 -- -- 70
2020-09-20 13:00:00 21.8 9 Sudoeste 19 Oeste 0 -- -- 74
2020-09-20 12:00:00 19.3 4 Sudoeste 8 Sur 0 -- -- 76
2020-09-20 11:00:00 17 3 Sur 6 Sur 0 -- -- 85
2020-09-20 10:00:00 13.8 0 Calma 5 Oeste 0 -- -- 99
2020-09-20 09:00:00 11.5 0 Calma 4 Norte 0.2 -- -- 100
2020-09-20 08:00:00 11 0 Calma 4 Nordeste 0 -- -- 100
2020-09-20 07:00:00 11.5 0 Calma 5 Norte 0 -- -- 98
2020-09-20 06:00:00 12.3 2 Norte 4 Nordeste 0 -- -- 100
2020-09-20 05:00:00 11.6 2 Nordeste 6 Sur 0 -- -- 99
2020-09-20 04:00:00 11.8 0 Calma 6 Sudoeste 0 -- -- 99
2020-09-20 03:00:00 12 0 Calma 7 Sudoeste 0 -- -- 99
2020-09-20 02:00:00 12.3 0 Calma 5 Nordeste 0 -- -- 100
2020-09-20 01:00:00 12.6 0 Calma 7 Sudoeste 0 -- -- 99
2020-09-20 00:00:00 13 2 Norte 6 Noroeste 0 -- -- 99
2020-09-19 23:00:00 13.7 3 Noroeste 6 Oeste 0 -- -- 99
2020-09-19 22:00:00 14.7 2 Norte 7 Oeste 0 -- -- 97
2020-09-19 21:00:00 16.2 3 Norte 4 Norte 0 -- -- 96
2020-09-19 20:00:00 17.6 0 Calma 5 Oeste 0 -- -- 94
2020-09-19 19:00:00 19.2 3 Oeste 8 Sudoeste 0 -- -- 86
2020-09-19 18:00:00 18.8 3 Sudoeste 13 Sur 0 -- -- 86
2020-09-19 17:00:00 19.5 7 Sur 17 Sur 0.2 -- -- 93
2020-09-19 16:00:00 17.1 4 Sur 11 Sur 0.8 -- -- 96
2020-09-19 15:00:00 17 3 Sudeste 9 Sudeste 2 -- -- 97
2020-09-19 14:00:00 16.6 3 Norte 4 Nordeste 0.2 -- -- 95
2020-09-19 13:00:00 16.4 0 Calma 6 Oeste 0.2 -- -- 92
2020-09-19 12:00:00 16.2 2 Sudeste 21 Sudeste 0.2 -- -- 91
2020-09-19 11:00:00 15.4 2 Norte 8 Sur 0.2 -- -- 95
2020-09-19 10:00:00 15.1 0 Calma 5 Oeste 0 -- -- 96
2020-09-19 09:00:00 14.5 0 Calma 15 Sudeste 0 -- -- 97
2020-09-19 08:00:00 14.3 0 Calma 9 Oeste 0.2 -- -- 97
2020-09-19 07:00:00 15 2 Sudeste 17 Este 0.4 -- -- 94
2020-09-19 06:00:00 15.8 5 Sudeste 23 Sudeste 0.2 -- -- 86
2020-09-19 05:00:00 16.2 12 Sudeste 26 Este 0.6 -- -- 84
2020-09-19 04:00:00 17.2 13 Sudeste 27 Este 0 -- -- 78
2020-09-19 03:00:00 16.6 13 Sudeste 28 Este 0.4 -- -- 84
2020-09-19 02:00:00 16.2 6 Este 23 Sudeste 0 -- -- 87
2020-09-19 01:00:00 16 3 Noroeste 31 Sudeste 1.6 -- -- 93
2020-09-19 00:00:00 17.1 10 Sudeste 24 Este 0.4 -- -- 86
2020-09-18 23:00:00 16.6 4 Noroeste 9 Nordeste 0 -- -- 94
2020-09-18 22:00:00 16.2 3 Nordeste 9 Sudoeste 0 -- -- 94
2020-09-18 21:00:00 17.7 3 Sudoeste 11 Nordeste 0 -- -- 88
2020-09-18 20:00:00 19.7 3 Norte 8 Sudoeste 0 -- -- 86
2020-09-18 19:00:00 21.3 2 Norte 20 Oeste 0 -- -- 78
2020-09-18 18:00:00 24.8 5 Oeste 21 Sur 0 -- -- 66
2020-09-18 17:00:00 26.5 9 Sudeste 26 Sur 0 -- -- 49
2020-09-18 16:00:00 25.7 11 Sur 27 Sudoeste 0 -- -- 51
2020-09-18 15:00:00 24.7 10 Sur 33 Sur 0 -- -- 53
2020-09-18 14:00:00 24.9 15 Sudeste 45 Sudeste 0 -- -- 54
2020-09-18 13:00:00 23.1 17 Sudeste 45 Sur 0 -- -- 58
2020-09-18 12:00:00 21.9 13 Sudeste 30 Este 0 -- -- 63
2020-09-18 11:00:00 18.6 4 Este 8 Sudeste 0 -- -- 78
2020-09-18 10:00:00 15.5 4 Este 26 Sudeste 1.2 -- -- 93
2020-09-18 09:00:00 16.9 6 Sudeste 18 Este 3.2 -- -- 91
2020-09-18 08:00:00 17.9 2 Sudeste 11 Noroeste 0 -- -- 89
2020-09-18 07:00:00 20.7 5 Sur 29 Este 0 -- -- 66
2020-09-18 06:00:00 21.1 5 Sudeste 27 Este 0 -- -- 63
2020-09-18 05:00:00 21.3 12 Sudeste 31 Este 0 -- -- 63
2020-09-18 04:00:00 21.6 13 Sudeste 30 Este 0 -- -- 64
2020-09-18 03:00:00 21 12 Sudeste 32 Sur 0 -- -- 73
2020-09-18 02:00:00 18.3 2 Nordeste 12 Nordeste 0.2 -- -- 95
2020-09-18 01:00:00 18.8 3 Noroeste 13 Sudoeste 0 -- -- 90
2020-09-18 00:00:00 19 7 Nordeste 13 Norte 0 -- -- 90
2020-09-17 23:00:00 19.1 4 Nordeste 8 Noroeste 0 -- -- 92
2020-09-17 22:00:00 18.8 2 Norte 6 Sudoeste 0 -- -- 93
2020-09-17 21:00:00 19.7 3 Nordeste 5 Norte 0 -- -- 93
2020-09-17 20:00:00 21.6 3 Nordeste 9 Noroeste 0 -- -- 88
2020-09-17 19:00:00 23.5 2 Oeste 9 Noroeste 0 -- -- 78
2020-09-17 18:00:00 24.8 3 Norte 8 Sur 0 -- -- 72
2020-09-17 17:00:00 25.8 4 Nordeste 12 Oeste 0 -- -- 60
2020-09-17 16:00:00 26.8 8 Oeste 15 Oeste 0 -- -- 68
2020-09-17 15:00:00 24.4 3 Sudoeste 10 Oeste 0 -- -- 81
2020-09-17 14:00:00 23.2 3 Nordeste 8 Noroeste 0 -- -- 82
2020-09-17 13:00:00 23.3 0 Calma 10 Oeste 0 -- -- 80
2020-09-17 12:00:00 21.5 3 Sudoeste 6 Sudoeste 0 -- -- 87
2020-09-17 11:00:00 19.3 0 Calma 10 Nordeste 0 -- -- 91
2020-09-17 10:00:00 18.4 2 Noroeste 5 Sudoeste 0 -- -- 93
2020-09-17 09:00:00 17.7 0 Calma 6 Nordeste 0 -- -- 98
2020-09-17 08:00:00 17.5 0 Calma 10 Noroeste 0 -- -- 98
2020-09-17 07:00:00 17.8 2 Noroeste 19 Sudeste 0 -- -- 97
2020-09-17 06:00:00 18.1 7 Norte 15 Este 0.8 -- -- 97
2020-09-17 05:00:00 17.9 0 Calma 5 Nordeste 0 -- -- 99
2020-09-17 04:00:00 18.4 0 Calma 4 Sur 0 -- -- 97
2020-09-17 03:00:00 19.2 0 Calma 4 Sur 0 -- -- 98
2020-09-17 02:00:00 19.3 0 Calma 3 Nordeste 0 -- -- 98
2020-09-17 01:00:00 19.4 0 Calma 3 Sur 0 -- -- 97
2020-09-17 00:00:00 19.3 0 Calma -- -- 0 -- -- 98
2020-09-16 23:00:00 18.8 0 Calma 3 Nordeste 0 -- -- 100
2020-09-16 22:00:00 18.1 0 Calma 4 Norte 0 -- -- 98
2020-09-16 21:00:00 19.3 0 Calma 5 Sudoeste 0 -- -- 95
2020-09-16 20:00:00 21.4 0 Calma 7 Oeste 0 -- -- 89
2020-09-16 19:00:00 22.9 4 Oeste 15 Oeste 0 -- -- 84
2020-09-16 18:00:00 24.6 5 Oeste 18 Noroeste 0 -- -- 79
2020-09-16 17:00:00 26.3 8 Oeste 22 Oeste 0 -- -- 71
2020-09-16 16:00:00 26.9 9 Sudoeste 18 Sudoeste 0 -- -- 73
2020-09-16 15:00:00 26.1 8 Sudoeste 15 Sudoeste 0 -- -- 71
2020-09-16 14:00:00 25.5 5 Sur 15 Sudoeste 0 -- -- 71
2020-09-16 13:00:00 23.3 6 Oeste 14 Oeste 0 -- -- 74
2020-09-16 12:00:00 20.9 5 Oeste 9 Sudoeste 0 -- -- 79
2020-09-16 11:00:00 18.7 3 Sur 5 Sudoeste 0 -- -- 90
2020-09-16 10:00:00 15.9 0 Calma 3 Nordeste 0 -- -- 100
2020-09-16 09:00:00 13.6 0 Calma 3 Nordeste 0 -- -- 100
2020-09-16 08:00:00 13 0 Calma 3 Nordeste 0 -- -- 100
2020-09-16 07:00:00 13.4 0 Calma 4 Oeste 0 -- -- 100
2020-09-16 06:00:00 13.6 0 Calma 3 Sudoeste 0 -- -- 100
2020-09-16 05:00:00 14.3 0 Calma 3 Nordeste 0 -- -- 100
2020-09-16 04:00:00 14.6 0 Calma 4 Nordeste 0 -- -- 100
2020-09-16 03:00:00 15.4 2 Norte 5 Nordeste 0 -- -- 99
2020-09-16 02:00:00 16.7 3 Nordeste 4 Norte 0 -- -- 98
2020-09-16 01:00:00 18.4 0 Calma 2 Noroeste 0 -- -- 98
2020-09-16 00:00:00 18.5 0 Calma 2 Oeste 0 -- -- 99
2020-09-15 23:00:00 17.8 0 Calma 3 Nordeste 0 -- -- 100
2020-09-15 22:00:00 17.3 0 Calma 4 Nordeste 0 -- -- 97
2020-09-15 21:00:00 18.4 0 Calma 4 Oeste 0 -- -- 93
2020-09-15 20:00:00 21.9 2 Noroeste 6 Oeste 0 -- -- 83
2020-09-15 19:00:00 23.9 5 Oeste 15 Noroeste 0 -- -- 76
2020-09-15 18:00:00 24.6 6 Sudoeste 18 Oeste 0 -- -- 74
2020-09-15 17:00:00 25.3 8 Oeste 21 Sur 0 -- -- 65
2020-09-15 16:00:00 26.1 12 Sudoeste 24 Oeste 0 -- -- 66
2020-09-15 15:00:00 24.6 4 Oeste 20 Sudoeste 0 -- -- 70
2020-09-15 14:00:00 25.3 7 Sudoeste 16 Sudoeste 0 -- -- 69
2020-09-15 13:00:00 22.4 6 Sudoeste 13 Oeste 0 -- -- 83
2020-09-15 12:00:00 19.9 4 Sur 7 Sudoeste 0 -- -- 94
2020-09-15 11:00:00 17.2 2 Sudoeste 6 Sur 0 -- -- 100
2020-09-15 10:00:00 15.7 0 Calma 6 Sudoeste 0 -- -- 100
2020-09-15 09:00:00 14.4 3 Norte 6 Noroeste 0 -- -- 100
2020-09-15 08:00:00 14.6 3 Noroeste 7 Nordeste 0 -- -- 100
2020-09-15 07:00:00 14.8 0 Calma 5 Nordeste 0 -- -- 100
2020-09-15 06:00:00 15.5 2 Nordeste 10 Norte 0 -- -- 98
2020-09-15 05:00:00 16.2 4 Nordeste 12 Noroeste 0 -- -- 97
2020-09-15 04:00:00 16.7 3 Norte 14 Nordeste 0.4 -- -- 98
2020-09-15 03:00:00 16.9 6 Nordeste 11 Noroeste 1.2 -- -- 100
2020-09-15 02:00:00 15.9 0 Calma 5 Norte 0 -- -- 100
2020-09-15 01:00:00 16.1 2 Norte 6 Norte 0 -- -- 98
2020-09-15 00:00:00 16.4 2 Norte 11 Norte 0 -- -- 97
2020-09-14 23:00:00 17.6 6 Oeste 17 Norte 0 -- -- 96
2020-09-14 22:00:00 17.5 3 Nordeste 17 Este 0 -- -- 94
2020-09-14 21:00:00 18.6 5 Nordeste 19 Nordeste 2.2 -- -- 90
2020-09-14 20:00:00 21.1 3 Norte 8 Noroeste 0 -- -- 78
2020-09-14 19:00:00 24.5 5 Sudoeste 14 Sudoeste 0 -- -- 65
2020-09-14 18:00:00 24.9 2 Sur 12 Sudoeste 0 -- -- 63
2020-09-14 17:00:00 25.6 8 Sur 14 Sudoeste 0 -- -- 63
2020-09-14 16:00:00 23.5 3 Este 11 Oeste 0 -- -- 70
2020-09-14 15:00:00 23 4 Nordeste 13 Oeste 0 -- -- 78
2020-09-14 14:00:00 26.6 3 Sudeste 11 Sudeste 0 -- -- 60
2020-09-14 13:00:00 29.7 7 Sudeste 23 Sudeste 0 -- -- 50
2020-09-14 12:00:00 28.4 9 Sudeste 21 Sudeste 0 -- -- 46
2020-09-14 11:00:00 27.6 7 Sur 22 Sudeste 0 -- -- 47
2020-09-14 10:00:00 25.9 10 Sudeste 24 Sur 0 -- -- 49
2020-09-14 09:00:00 25.9 10 Sudeste 30 Sudeste 0 -- -- 44
2020-09-14 08:00:00 25.3 8 Sudeste 23 Este 0 -- -- 46
2020-09-14 07:00:00 25.3 9 Sudeste 26 Sudeste 0 -- -- 44
2020-09-14 06:00:00 25.3 10 Sudeste 30 Este 0 -- -- 42
2020-09-14 05:00:00 19.6 5 Noroeste 13 Norte 0 -- -- 65
2020-09-14 04:00:00 18.4 3 Norte 11 Noroeste 0 -- -- 71
2020-09-14 03:00:00 17.2 0 Calma 7 Oeste 0 -- -- 79
2020-09-14 02:00:00 17.3 0 Calma 7 Nordeste 0 -- -- 79
2020-09-14 01:00:00 17.3 0 Calma 6 Nordeste 0 -- -- 81
2020-09-14 00:00:00 17.7 2 Norte 5 Norte 0 -- -- 81
2020-09-13 23:00:00 17.8 0 Calma 5 Sudoeste 0 -- -- 83
2020-09-13 22:00:00 19.4 3 Norte 5 Norte 0 -- -- 81
2020-09-13 21:00:00 20.8 0 Calma 5 Noroeste 0 -- -- 79
2020-09-13 20:00:00 23.5 0 Calma 6 Este 0 -- -- 72
2020-09-13 19:00:00 28.5 0 Calma 15 Sudoeste 0 -- -- 54
2020-09-13 18:00:00 32.9 8 Sudoeste 18 Oeste 0 -- -- 41
2020-09-13 17:00:00 33.2 7 Sudoeste 19 Sudoeste 0 -- -- 38
2020-09-13 16:00:00 32.5 8 Oeste 20 Oeste 0 -- -- 38
2020-09-13 15:00:00 32.3 9 Sudoeste 15 Sur 0 -- -- 46
2020-09-13 14:00:00 29.6 5 Noroeste 11 Noroeste 0 -- -- 49
2020-09-13 13:00:00 28.7 4 Sur 8 Oeste 0 -- -- 49
2020-09-13 12:00:00 26 3 Sudoeste 9 Sudoeste 0 -- -- 60
2020-09-13 11:00:00 22.5 2 Sudoeste 9 Sur 0 -- -- 56
2020-09-13 10:00:00 19 3 Este 13 Sudeste 0 -- -- 66
2020-09-13 09:00:00 15.2 4 Nordeste 9 Este 0 -- -- 78
2020-09-13 08:00:00 13.5 3 Noroeste 8 Oeste 0 -- -- 92
2020-09-13 07:00:00 13.4 2 Noroeste 6 Norte 0 -- -- 96
2020-09-13 06:00:00 12.7 0 Calma 4 Nordeste 0 -- -- 100
2020-09-13 05:00:00 12.9 0 Calma 4 Nordeste 0 -- -- 100
2020-09-13 04:00:00 13.5 2 Nordeste 4 Nordeste 0 -- -- 100
2020-09-13 03:00:00 14.1 0 Calma 4 Nordeste 0 -- -- 100
2020-09-13 02:00:00 14.8 0 Calma 5 Noroeste 0 -- -- 99
2020-09-13 01:00:00 15.7 0 Calma 3 Nordeste 0 -- -- 99
2020-09-13 00:00:00 16.7 0 Calma 4 Nordeste 0 -- -- 99
2020-09-12 23:00:00 17.1 3 Nordeste 5 Nordeste 0 -- -- 98
2020-09-12 22:00:00 18.2 2 Noroeste 5 Nordeste 0 -- -- 94
2020-09-12 21:00:00 19.9 0 Calma 6 Este 0 -- -- 93
2020-09-12 20:00:00 22.3 3 Este 13 Sudoeste 0 -- -- 83
2020-09-12 19:00:00 24.5 6 Sudoeste 17 Noroeste 0 -- -- 76
2020-09-12 18:00:00 25.3 7 Oeste 22 Sudoeste 0 -- -- 74
2020-09-12 17:00:00 25.8 10 Sudoeste 23 Oeste 0 -- -- 71
2020-09-12 16:00:00 26.2 9 Oeste 21 Oeste 0 -- -- 69
2020-09-12 15:00:00 25.4 7 Noroeste 21 Oeste 0 -- -- 69
2020-09-12 14:00:00 24.8 6 Sudoeste 19 Sudoeste 0 -- -- 72
2020-09-12 13:00:00 24.2 9 Sudoeste 17 Sudoeste 0 -- -- 73
2020-09-12 12:00:00 21.6 6 Sudoeste 13 Sudoeste 0 -- -- 77
2020-09-12 11:00:00 19.3 4 Sudoeste 8 Sur 0 -- -- 85
2020-09-12 10:00:00 15.9 3 Este 5 Norte 0 -- -- 98
2020-09-12 09:00:00 13.4 0 Calma 4 Oeste 0 -- -- 100
2020-09-12 08:00:00 13 2 Norte 4 Nordeste 0 -- -- 99
2020-09-12 07:00:00 14.1 2 Nordeste 6 Noroeste 0 -- -- 99
2020-09-12 06:00:00 15.1 0 Calma 4 Oeste 0 -- -- 100
2020-09-12 05:00:00 16 0 Calma 3 Nordeste 0 -- -- 98
2020-09-12 04:00:00 16.7 0 Calma 2 Sudoeste 0 -- -- 100
2020-09-12 03:00:00 16.6 0 Calma 4 Nordeste 0 -- -- 100
2020-09-12 02:00:00 16.5 0 Calma 4 Noroeste 0 -- -- 100
2020-09-12 01:00:00 17.2 0 Calma 2 Este 0 -- -- 100
2020-09-12 00:00:00 17.1 0 Calma 3 Nordeste 0 -- -- 97
2020-09-11 23:00:00 18.9 0 Calma 3 Oeste 0 -- -- 95
2020-09-11 22:00:00 19.3 0 Calma 4 Nordeste 0 -- -- 96
2020-09-11 21:00:00 19.1 0 Calma 6 Este 0 -- -- 93
2020-09-11 20:00:00 22.4 2 Sudeste 16 Oeste 0 -- -- 83
2020-09-11 19:00:00 24.7 8 Oeste 22 Sudoeste 0 -- -- 76
2020-09-11 18:00:00 26 9 Sudoeste 22 Oeste 0 -- -- 71
2020-09-11 17:00:00 26.2 9 Oeste 20 Noroeste 0 -- -- 68
2020-09-11 16:00:00 26.2 7 Oeste 22 Oeste 0 -- -- 66
2020-09-11 15:00:00 26.3 8 Oeste 22 Oeste 0 -- -- 62
2020-09-11 14:00:00 25.2 9 Sudoeste 18 Sudoeste 0 -- -- 64
2020-09-11 13:00:00 22.8 6 Sudoeste 12 Sudoeste 0 -- -- 69
2020-09-11 12:00:00 20.6 5 Sur 9 Sudoeste 0 -- -- 78
2020-09-11 11:00:00 17.7 3 Sudoeste 5 Sudoeste 0 -- -- 86
2020-09-11 10:00:00 14.2 0 Calma 4 Norte 0 -- -- 100
2020-09-11 09:00:00 11.6 0 Calma 4 Nordeste 0.2 -- -- 100
2020-09-11 08:00:00 11.3 0 Calma 3 Nordeste 0 -- -- 100
2020-09-11 07:00:00 11.5 0 Calma 3 Nordeste 0 -- -- 100
2020-09-11 06:00:00 12 0 Calma 3 Nordeste 0 -- -- 100
2020-09-11 05:00:00 12.4 0 Calma 3 Nordeste 0 -- -- 100
2020-09-11 04:00:00 12.6 0 Calma 2 Nordeste 0 -- -- 100
2020-09-11 03:00:00 13.3 0 Calma 3 Norte 0 -- -- 100
2020-09-11 02:00:00 13.6 0 Calma 3 Norte 0 -- -- 100
2020-09-11 01:00:00 14 0 Calma 3 Nordeste 0 -- -- 100
2020-09-11 00:00:00 14.4 0 Calma 2 Norte 0 -- -- 99
2020-09-10 23:00:00 15 0 Calma 3 Nordeste 0 -- -- 98
2020-09-10 22:00:00 15.9 0 Calma 3 Norte 0 -- -- 96
2020-09-10 21:00:00 17.9 0 Calma 9 Sudoeste 0 -- -- 89
2020-09-10 20:00:00 22.4 3 Sudoeste 18 Sudoeste 0 -- -- 74
2020-09-10 19:00:00 24.2 5 Sudoeste 19 Oeste 0 -- -- 69
2020-09-10 18:00:00 25 10 Oeste 24 Sudoeste 0 -- -- 65
2020-09-10 17:00:00 25.8 7 Oeste 20 Oeste 0 -- -- 65
2020-09-10 16:00:00 25.2 9 Oeste 21 Sudoeste 0 -- -- 64
2020-09-10 15:00:00 25.2 8 Oeste 22 Oeste 0 -- -- 61
2020-09-10 14:00:00 24.4 9 Oeste 21 Oeste 0 -- -- 65
2020-09-10 13:00:00 23.1 8 Sudoeste 17 Sudoeste 0 -- -- 65
2020-09-10 12:00:00 20.5 4 Oeste 9 Oeste 0 -- -- 78
2020-09-10 11:00:00 18.1 3 Sur 6 Sudoeste 0 -- -- 78
2020-09-10 10:00:00 14.5 0 Calma 6 Noroeste 0 -- -- 100
2020-09-10 09:00:00 11.9 0 Calma 4 Nordeste 0 -- -- 100
2020-09-10 08:00:00 11.5 0 Calma 5 Sudoeste 0 -- -- 100
2020-09-10 07:00:00 11.8 0 Calma 4 Norte 0 -- -- 100
2020-09-10 06:00:00 12.5 2 Nordeste 5 Nordeste 0 -- -- 100
2020-09-10 05:00:00 13.1 0 Calma 4 Norte 0 -- -- 100
2020-09-10 04:00:00 13.3 2 Norte 3 Noroeste 0 -- -- 100
2020-09-10 03:00:00 13.5 0 Calma 3 Nordeste 0 -- -- 100
2020-09-10 02:00:00 13.7 0 Calma 3 Este 0 -- -- 100
2020-09-10 01:00:00 14.1 0 Calma 3 Nordeste 0 -- -- 99
2020-09-10 00:00:00 15.2 0 Calma 4 Nordeste 0 -- -- 98
2020-09-09 23:00:00 15.7 0 Calma 4 Nordeste 0 -- -- 99
2020-09-09 22:00:00 16.1 3 Nordeste 5 Este 0 -- -- 96
2020-09-09 21:00:00 17.6 2 Nordeste 5 Sur 0 -- -- 91
2020-09-09 20:00:00 22 0 Calma 19 Sudoeste 0 -- -- 77
2020-09-09 19:00:00 23.9 8 Sudoeste 21 Oeste 0 -- -- 72
2020-09-09 18:00:00 24.3 8 Oeste 23 Sudoeste 0 -- -- 69
2020-09-09 17:00:00 25.6 8 Oeste 24 Sudoeste 0 -- -- 63
2020-09-09 16:00:00 25.4 8 Sudoeste 22 Oeste 0 -- -- 63
2020-09-09 15:00:00 24.7 8 Oeste 22 Oeste 0 -- -- 59
2020-09-09 14:00:00 24.2 12 Sudoeste 21 Oeste 0 -- -- 62
2020-09-09 13:00:00 21.9 6 Sudoeste 15 Sudoeste 0 -- -- 70
2020-09-09 12:00:00 19.4 4 Oeste 8 Oeste 0 -- -- 68
2020-09-09 11:00:00 16.9 2 Sur 5 Sur 0 -- -- 85
2020-09-09 10:00:00 13.4 0 Calma 3 Nordeste 0 -- -- 100
2020-09-09 09:00:00 10.3 0 Calma 3 Nordeste 0.2 -- -- 100
2020-09-09 08:00:00 10.2 0 Calma 5 Noroeste 0 -- -- 100
2020-09-09 07:00:00 10.2 0 Calma 3 Oeste 0 -- -- 100
2020-09-09 06:00:00 10.6 0 Calma 4 Nordeste 0 -- -- 100
2020-09-09 05:00:00 10.8 0 Calma 3 Norte 0 -- -- 100
2020-09-09 04:00:00 11.3 0 Calma 4 Oeste 0 -- -- 100
2020-09-09 03:00:00 11.6 0 Calma 3 Nordeste 0 -- -- 100
2020-09-09 02:00:00 11.9 0 Calma 3 Nordeste 0 -- -- 100
2020-09-09 01:00:00 12.4 0 Calma 6 Norte 0 -- -- 99
2020-09-09 00:00:00 12.8 0 Calma 4 Norte 0 -- -- 98
2020-09-08 23:00:00 13.5 0 Calma 4 Nordeste 0 -- -- 97
2020-09-08 22:00:00 14.4 0 Calma 5 Nordeste 0 -- -- 95
2020-09-08 21:00:00 16.3 4 Nordeste 15 Oeste 0 -- -- 88
2020-09-08 20:00:00 20.7 6 Oeste 18 Noroeste 0 -- -- 72
2020-09-08 19:00:00 22.5 5 Noroeste 17 Noroeste 0 -- -- 67
2020-09-08 18:00:00 24 8 Sudoeste 21 Oeste 0 -- -- 67
2020-09-08 17:00:00 23.9 9 Sudoeste 20 Oeste 0 -- -- 67
2020-09-08 16:00:00 23.5 12 Oeste 26 Sudoeste 0 -- -- 63
2020-09-08 15:00:00 23.7 9 Sudoeste 23 Oeste 0 -- -- 60
2020-09-08 14:00:00 22.8 9 Sudoeste 20 Oeste 0 -- -- 65
2020-09-08 13:00:00 20.7 5 Oeste 15 Oeste 0 -- -- 66
2020-09-08 12:00:00 18.2 4 Sur 6 Sur 0 -- -- 70
2020-09-08 11:00:00 15 3 Sur 7 Sur 0 -- -- 74
2020-09-08 10:00:00 11 0 Calma 6 Sur 0 -- -- 95
2020-09-08 09:00:00 8.3 0 Calma 4 Norte 0 -- -- 100
2020-09-08 08:00:00 8.3 0 Calma 4 Nordeste 0 -- -- 100
2020-09-08 07:00:00 8.9 2 Oeste 4 Noroeste 0 -- -- 100
2020-09-08 06:00:00 8.9 2 Noroeste 5 Nordeste 0 -- -- 100
2020-09-08 05:00:00 9.5 0 Calma 4 Nordeste 0 -- -- 100
2020-09-08 04:00:00 10.1 0 Calma 4 Norte 0 -- -- 100
2020-09-08 03:00:00 10.2 0 Calma 3 Norte 0 -- -- 100
2020-09-08 02:00:00 10.5 0 Calma 4 Nordeste 0 -- -- 100
2020-09-08 01:00:00 11.3 3 Nordeste 6 Nordeste 0 -- -- 100
2020-09-08 00:00:00 11.8 2 Norte 6 Nordeste 0 -- -- 98
2020-09-07 23:00:00 12.6 2 Nordeste 5 Nordeste 0 -- -- 98
2020-09-07 22:00:00 13.7 4 Nordeste 16 Norte 0 -- -- 93
2020-09-07 21:00:00 16 9 Norte 16 Norte 0 -- -- 83
2020-09-07 20:00:00 17.2 5 Noroeste 14 Noroeste 0 -- -- 79
2020-09-07 19:00:00 18.6 5 Oeste 21 Oeste 0 -- -- 76
2020-09-07 18:00:00 20.9 8 Oeste 23 Oeste 0 -- -- 68
2020-09-07 17:00:00 22.4 10 Sudoeste 24 Sudoeste 0 -- -- 63
2020-09-07 16:00:00 19.8 9 Sudoeste 18 Noroeste 0 -- -- 75
2020-09-07 15:00:00 19 9 Sudoeste 20 Sudoeste 0 -- -- 72
2020-09-07 14:00:00 18.5 6 Oeste 20 Sudoeste 0 -- -- 75
2020-09-07 13:00:00 17.8 8 Oeste 24 Sudoeste 0 -- -- 77
2020-09-07 12:00:00 16 2 Sudeste 12 Sudoeste 0 -- -- 89
2020-09-07 11:00:00 14.7 0 Calma 5 Sudeste 0 -- -- 90
2020-09-07 10:00:00 13.4 2 Sudoeste 4 Sudoeste 0 -- -- 100
2020-09-07 09:00:00 11.6 0 Calma 8 Norte 0 -- -- 100
2020-09-07 08:00:00 11.2 5 Norte 10 Nordeste 0 -- -- 99
2020-09-07 07:00:00 11.9 3 Nordeste 11 Norte 0 -- -- 95
2020-09-07 06:00:00 13.8 3 Norte 7 Oeste 0 -- -- 92
2020-09-07 05:00:00 13.8 2 Este 9 Noroeste 0 -- -- 95
2020-09-07 04:00:00 13.9 3 Sudeste 6 Nordeste 0.2 -- -- 95
2020-09-07 03:00:00 14.2 0 Calma 15 Oeste 0 -- -- 96
2020-09-07 02:00:00 13.9 0 Calma 4 Este 0 -- -- 98
2020-09-07 01:00:00 13.8 0 Calma 5 Norte 0 -- -- 97
2020-09-07 00:00:00 14.1 0 Calma 4 Nordeste 0 -- -- 98
2020-09-06 23:00:00 13.6 0 Calma 4 Nordeste 0 -- -- 99
2020-09-06 22:00:00 13.8 0 Calma 6 Norte 0 -- -- 96
2020-09-06 21:00:00 14.6 4 Norte 12 Noroeste 0 -- -- 91
2020-09-06 20:00:00 16 4 Noroeste 13 Oeste 0 -- -- 85
2020-09-06 19:00:00 16.5 3 Sudoeste 19 Oeste 0 -- -- 84
2020-09-06 18:00:00 17 7 Sudoeste 22 Oeste 0 -- -- 83
2020-09-06 17:00:00 17 4 Oeste 17 Oeste 0 -- -- 83
2020-09-06 16:00:00 16.8 8 Oeste 22 Oeste 0 -- -- 87
2020-09-06 15:00:00 17.4 7 Noroeste 21 Oeste 0 -- -- 85
2020-09-06 14:00:00 17.4 3 Sur 15 Este 0 -- -- 81
2020-09-06 13:00:00 16.7 7 Nordeste 15 Oeste 0 -- -- 85
2020-09-06 12:00:00 15.4 6 Sudoeste 17 Oeste 0 -- -- 95
2020-09-06 11:00:00 14.6 7 Sudoeste 14 Oeste 0 -- -- 99
2020-09-06 10:00:00 13.9 6 Sudoeste 15 Oeste 0 -- -- 100
2020-09-06 09:00:00 13.6 5 Sudoeste 11 Sudoeste 0.2 -- -- 100
2020-09-06 08:00:00 13.6 4 Sudoeste 10 Oeste 0.2 -- -- 100
2020-09-06 07:00:00 13.8 0 Calma 10 Oeste 0.2 -- -- 100
2020-09-06 06:00:00 14.1 4 Sudoeste 15 Oeste 0.2 -- -- 100
2020-09-06 05:00:00 14.5 6 Sudoeste 14 Oeste 0.2 -- -- 100
2020-09-06 04:00:00 14.9 2 Sur 12 Sudoeste 0.2 -- -- 100
2020-09-06 03:00:00 15.2 5 Oeste 13 Sudoeste 0.2 -- -- 100
2020-09-06 02:00:00 15.6 4 Sudoeste 6 Oeste 0 -- -- 100
2020-09-06 01:00:00 15.7 3 Sudoeste 10 Oeste 0.2 -- -- 100
2020-09-06 00:00:00 16 4 Sudoeste 8 Sudoeste 0 -- -- 98
2020-09-05 23:00:00 16 0 Calma 7 Sudoeste 0 -- -- 99
2020-09-05 22:00:00 16.1 0 Calma 8 Oeste 0 -- -- 99
2020-09-05 21:00:00 16.2 4 Sudoeste 12 Oeste 0 -- -- 100
2020-09-05 20:00:00 16.6 6 Oeste 11 Oeste 0 -- -- 99
2020-09-05 19:00:00 17.1 4 Sudoeste 9 Sudoeste 0 -- -- 98
2020-09-05 18:00:00 17.7 2 Sudoeste 16 Sudoeste 0 -- -- 94
2020-09-05 17:00:00 18.1 7 Sudoeste 15 Oeste 0 -- -- 92
2020-09-05 16:00:00 18.1 9 Oeste 18 Oeste 0 -- -- 91
2020-09-05 15:00:00 17.7 7 Oeste 14 Oeste 0 -- -- 94
2020-09-05 14:00:00 17.3 6 Oeste 13 Noroeste 0.2 -- -- 98
2020-09-05 13:00:00 17.7 6 Oeste 12 Sudoeste 0 -- -- 97
2020-09-05 12:00:00 17.1 7 Oeste 12 Oeste 0 -- -- 99
2020-09-05 11:00:00 17 5 Oeste 13 Sudoeste 0.4 -- -- 99
2020-09-05 10:00:00 16.9 5 Sudoeste 11 Oeste 0.6 -- -- 99
2020-09-05 09:00:00 16.9 0 Calma 0 Calma 1.2 -- -- 98
2020-09-05 08:00:00 16.9 0 Calma 4 Sudeste 1.2 -- -- 96
2020-09-05 07:00:00 17.4 0 Calma 4 Sudoeste 0 -- -- 96
2020-09-05 06:00:00 17.8 0 Calma 2 Nordeste 0.2 -- -- 98
2020-09-05 05:00:00 17.8 0 Calma 4 Oeste 0.2 -- -- 95
2020-09-05 04:00:00 18.4 0 Calma 3 Noroeste 0 -- -- 94
2020-09-05 03:00:00 18.5 0 Calma 0 Calma 0 -- -- 96
2020-09-05 02:00:00 18.3 2 Sudoeste 4 Este 0 -- -- 98
2020-09-05 01:00:00 17.4 3 Noroeste 6 Noroeste 0 -- -- 99
2020-09-05 00:00:00 16.6 3 Nordeste 5 Nordeste 0 -- -- 98
2020-09-04 23:00:00 16.9 0 Calma 7 Noroeste 0 -- -- 93
2020-09-04 22:00:00 17.9 0 Calma 8 Sur 0 -- -- 81
2020-09-04 21:00:00 20 3 Noroeste 6 Oeste 0 -- -- 71
2020-09-04 20:00:00 25 0 Calma 14 Noroeste 0 -- -- 63
2020-09-04 19:00:00 29.8 6 Oeste 17 Oeste 0 -- -- 42
2020-09-04 18:00:00 31.4 6 Sudoeste 22 Sudoeste 0 -- -- 41
2020-09-04 17:00:00 31.8 8 Oeste 18 Oeste 0 -- -- 44
2020-09-04 16:00:00 32 7 Sudoeste 17 Sudoeste 0 -- -- 44
2020-09-04 15:00:00 31 8 Sudoeste 19 Oeste 0 -- -- 52
2020-09-04 14:00:00 29 6 Sudoeste 12 Oeste 0 -- -- 55
2020-09-04 13:00:00 27.5 5 Sur 10 Sudoeste 0 -- -- 59
2020-09-04 12:00:00 25.2 3 Sur 6 Sudoeste 0 -- -- 69
2020-09-04 11:00:00 22.3 2 Sudeste 6 Oeste 0 -- -- 66
2020-09-04 10:00:00 17.5 0 Calma 6 Noroeste 0 -- -- 81
2020-09-04 09:00:00 13.8 0 Calma 5 Nordeste 0 -- -- 92
2020-09-04 08:00:00 13.2 0 Calma 6 Norte 0 -- -- 93
2020-09-04 07:00:00 13.4 0 Calma 4 Sudoeste 0 -- -- 94
2020-09-04 06:00:00 13.9 0 Calma 5 Norte 0 -- -- 95
2020-09-04 05:00:00 14.2 0 Calma 5 Norte 0 -- -- 96
2020-09-04 04:00:00 14.4 0 Calma 4 Nordeste 0 -- -- 96
2020-09-04 03:00:00 14.9 3 Norte 5 Nordeste 0 -- -- 97
2020-09-04 02:00:00 14.8 0 Calma 3 Norte 0 -- -- 96
2020-09-04 01:00:00 15.9 0 Calma 6 Noroeste 0 -- -- 93
2020-09-04 00:00:00 16.3 0 Calma 7 Nordeste 0 -- -- 92
2020-09-03 23:00:00 16.4 0 Calma 4 Norte 0 -- -- 92
2020-09-03 22:00:00 17.3 2 Norte 4 Norte 0 -- -- 89
2020-09-03 21:00:00 19.2 0 Calma 4 Nordeste 0 -- -- 85
2020-09-03 20:00:00 23.5 2 Oeste 13 Sudoeste 0 -- -- 72
2020-09-03 19:00:00 27.3 4 Sudoeste 17 Oeste 0 -- -- 61
2020-09-03 18:00:00 28.3 8 Sudoeste 19 Sudoeste 0 -- -- 59
2020-09-03 17:00:00 28.5 8 Sudoeste 20 Oeste 0 -- -- 55
2020-09-03 16:00:00 28.8 8 Oeste 20 Oeste 0 -- -- 55
2020-09-03 15:00:00 28.9 10 Sudoeste 21 Sudoeste 0 -- -- 59
2020-09-03 14:00:00 26.8 7 Sudoeste 14 Sudoeste 0 -- -- 60
2020-09-03 13:00:00 24.4 6 Sudoeste 11 Sudoeste 0 -- -- 67
2020-09-03 12:00:00 22.3 6 Sudoeste 10 Sudoeste 0 -- -- 75
2020-09-03 11:00:00 19.7 3 Sur 5 Sur 0 -- -- 81
2020-09-03 10:00:00 16.1 0 Calma 4 Nordeste 0 -- -- 98
2020-09-03 09:00:00 13.4 0 Calma 4 Nordeste 0 -- -- 100
2020-09-03 08:00:00 12.4 0 Calma 4 Oeste 0 -- -- 100
2020-09-03 07:00:00 12.4 3 Nordeste 4 Nordeste 0 -- -- 100
2020-09-03 06:00:00 12.6 0 Calma 4 Nordeste 0 -- -- 100
2020-09-03 05:00:00 12.8 2 Nordeste 3 Norte 0 -- -- 100
2020-09-03 04:00:00 13.3 0 Calma 3 Nordeste 0 -- -- 100
2020-09-03 03:00:00 13.7 2 Nordeste 3 Nordeste 0 -- -- 100
2020-09-03 02:00:00 14.2 2 Nordeste 5 Nordeste 0 -- -- 99
2020-09-03 01:00:00 15.2 0 Calma 4 Norte 0 -- -- 96
2020-09-03 00:00:00 16.8 0 Calma 0 Calma 0 -- -- 97
2020-09-02 23:00:00 16.5 0 Calma 2 Nordeste 0 -- -- 97
2020-09-02 22:00:00 16.1 0 Calma 5 Nordeste 0 -- -- 95
2020-09-02 21:00:00 18.1 4 Nordeste 12 Sudoeste 0 -- -- 88
2020-09-02 20:00:00 21.7 7 Oeste 17 Sudoeste 0 -- -- 76
2020-09-02 19:00:00 23 7 Sudoeste 22 Sudoeste 0 -- -- 72
2020-09-02 18:00:00 24 10 Sudoeste 23 Sudoeste 0 -- -- 69
2020-09-02 17:00:00 24 4 Nordeste 22 Oeste 0 -- -- 68
2020-09-02 16:00:00 24.5 11 Sudoeste 23 Sudoeste 0 -- -- 64
2020-09-02 15:00:00 23.5 12 Sudoeste 22 Sudoeste 0 -- -- 67
2020-09-02 14:00:00 22.6 9 Sudoeste 22 Oeste 0 -- -- 70
2020-09-02 13:00:00 21.7 10 Sudoeste 21 Sudoeste 0 -- -- 71
2020-09-02 12:00:00 19.9 4 Sudoeste 12 Oeste 0 -- -- 73
2020-09-02 11:00:00 17.6 3 Sur 7 Sudoeste 0 -- -- 76
2020-09-02 10:00:00 14 0 Calma 5 Sur 0 -- -- 89
2020-09-02 09:00:00 11.7 3 Sudeste 9 Sudeste 0 -- -- 96
2020-09-02 08:00:00 12.5 0 Calma 6 Noroeste 0 -- -- 95
2020-09-02 07:00:00 12.9 0 Calma 5 Oeste 0 -- -- 96
2020-09-02 06:00:00 12.2 0 Calma 3 Norte 0 -- -- 100
2020-09-02 05:00:00 11.4 0 Calma 5 Nordeste 0 -- -- 99
2020-09-02 04:00:00 12.7 0 Calma 4 Nordeste 0 -- -- 98
2020-09-02 03:00:00 12.8 0 Calma 3 Nordeste 0 -- -- 99
2020-09-02 02:00:00 13.6 0 Calma 3 Norte 0 -- -- 97
2020-09-02 01:00:00 13.2 0 Calma 4 Norte 0 -- -- 100
2020-09-02 00:00:00 13.7 0 Calma 5 Nordeste 0 -- -- 98
2020-09-01 23:00:00 13.7 3 Nordeste 8 Nordeste 0 -- -- 97
2020-09-01 22:00:00 15.2 4 Nordeste 7 Nordeste 0 -- -- 91
2020-09-01 21:00:00 16.7 3 Nordeste 9 Oeste 0 -- -- 83
2020-09-01 20:00:00 17.5 6 Oeste 18 Oeste 0 -- -- 76
2020-09-01 19:00:00 18.5 4 Oeste 17 Oeste 0 -- -- 73
2020-09-01 18:00:00 19.5 4 Noroeste 18 Oeste 0 -- -- 72
2020-09-01 17:00:00 19.6 8 Noroeste 27 Oeste 0 -- -- 73
2020-09-01 16:00:00 21.8 9 Oeste 26 Norte 0 -- -- 69
2020-09-01 15:00:00 22.5 6 Noroeste 30 Oeste 0 -- -- 67
2020-09-01 14:00:00 23.1 11 Sudoeste 22 Sudoeste 0 -- -- 65
2020-09-01 13:00:00 21.4 8 Oeste 21 Sudoeste 0 -- -- 67
2020-09-01 12:00:00 19.9 10 Sudoeste 19 Sudoeste 0 -- -- 75
2020-09-01 11:00:00 17.1 4 Sur 7 Sudoeste 0 -- -- 75
2020-09-01 10:00:00 14.4 0 Calma 5 Oeste 0 -- -- 90
2020-09-01 09:00:00 12.5 0 Calma 3 Norte 0 -- -- 98
2020-09-01 08:00:00 11.2 0 Calma 4 Nordeste 0 -- -- 99
2020-09-01 07:00:00 11.1 0 Calma 4 Nordeste 0 -- -- 98
2020-09-01 06:00:00 12 0 Calma 4 Nordeste 0 -- -- 96
2020-09-01 05:00:00 12.1 0 Calma 4 Nordeste 0 -- -- 97
2020-09-01 04:00:00 11.4 0 Calma 5 Noroeste 0 -- -- 98
2020-09-01 03:00:00 12.1 0 Calma 5 Norte 0 -- -- 96
2020-09-01 02:00:00 12.3 2 Norte 4 Nordeste 0 -- -- 95
2020-09-01 01:00:00 12.6 0 Calma 5 Nordeste 0 -- -- 94
2020-09-01 00:00:00 13.8 0 Calma 4 Norte 0 -- -- 94
2020-08-31 23:00:00 13.7 2 Nordeste 5 Nordeste 0 -- -- 93
2020-08-31 22:00:00 14.6 0 Calma 5 Nordeste 0 -- -- 92
2020-08-31 21:00:00 16.2 3 Nordeste 5 Nordeste 0 -- -- 86
2020-08-31 20:00:00 19 3 Oeste 6 Oeste 0 -- -- 75
2020-08-31 19:00:00 20.8 2 Sur 8 Sudoeste 0 -- -- 72
2020-08-31 18:00:00 20.8 4 Sudoeste 10 Oeste 0 -- -- 69
2020-08-31 17:00:00 22 4 Oeste 16 Oeste 0 -- -- 62
2020-08-31 16:00:00 23.3 8 Oeste 24 Noroeste 0 -- -- 56
2020-08-31 15:00:00 23.2 7 Nordeste 19 Sudoeste 0 -- -- 57
2020-08-31 14:00:00 22.4 9 Sudoeste 18 Sudoeste 0 -- -- 59
2020-08-31 13:00:00 20.1 6 Sudoeste 15 Oeste 0 -- -- 63
2020-08-31 12:00:00 17.9 5 Sudoeste 9 Sudoeste 0 -- -- 75
2020-08-31 11:00:00 14.7 3 Sudoeste 7 Sur 0 -- -- 83
2020-08-31 10:00:00 11 0 Calma 4 Sudoeste 0 -- -- 100
2020-08-31 09:00:00 7.8 0 Calma 4 Este 0 -- -- 100
2020-08-31 08:00:00 6.9 2 Noroeste 5 Norte 0 -- -- 100
2020-08-31 07:00:00 6.8 2 Nordeste 4 Nordeste 0.2 -- -- 100
2020-08-31 06:00:00 7.1 2 Norte 4 Norte 0 -- -- 100
2020-08-31 05:00:00 7.7 0 Calma 7 Norte 0 -- -- 100
2020-08-31 04:00:00 8 2 Este 5 Nordeste 0 -- -- 100
2020-08-31 03:00:00 8.1 2 Norte 4 Norte 0 -- -- 100
2020-08-31 02:00:00 8.5 0 Calma 4 Norte 0 -- -- 100
2020-08-31 01:00:00 8.6 0 Calma 4 Nordeste 0 -- -- 100
2020-08-31 00:00:00 9 0 Calma 4 Norte 0 -- -- 100
2020-08-30 23:00:00 9.5 0 Calma 5 Este 0 -- -- 98
2020-08-30 22:00:00 10.3 2 Nordeste 6 Nordeste 0 -- -- 96
2020-08-30 21:00:00 12.2 3 Nordeste 10 Oeste 0 -- -- 90
2020-08-30 20:00:00 15.4 6 Oeste 13 Oeste 0 -- -- 73
2020-08-30 19:00:00 15.4 4 Sudoeste 14 Sudoeste 0 -- -- 78
2020-08-30 18:00:00 16.6 2 Sudoeste 12 Oeste 0 -- -- 75
2020-08-30 17:00:00 16.3 3 Sudoeste 15 Oeste 0 -- -- 76
2020-08-30 16:00:00 18.2 5 Noroeste 21 Oeste 0 -- -- 68
2020-08-30 15:00:00 16.3 5 Sudoeste 13 Oeste 0 -- -- 73
2020-08-30 14:00:00 14.6 4 Oeste 12 Norte 0 -- -- 88
2020-08-30 13:00:00 14.1 3 Oeste 10 Noroeste 0.6 -- -- 91
2020-08-30 12:00:00 14 3 Sudeste 7 Sur 0 -- -- 92
2020-08-30 11:00:00 12.4 2 Sudoeste 10 Oeste 1.4 -- -- 100
2020-08-30 10:00:00 11.9 0 Calma 6 Noroeste 0.2 -- -- 100
2020-08-30 09:00:00 11.3 0 Calma 6 Nordeste 0 -- -- 100
2020-08-30 08:00:00 10.9 0 Calma 5 Nordeste 2.6 -- -- 100
2020-08-30 07:00:00 11 3 Norte 8 Noroeste 4.6 -- -- 100
2020-08-30 06:00:00 11 3 Nordeste 5 Nordeste 2 -- -- 100
2020-08-30 05:00:00 10.8 2 Nordeste 5 Este 3 -- -- 100
2020-08-30 04:00:00 11.1 0 Calma 5 Norte 2.2 -- -- 100
2020-08-30 03:00:00 11.1 0 Calma 6 Norte 0.4 -- -- 100
2020-08-30 02:00:00 11.1 0 Calma 6 Este 1.2 -- -- 100
2020-08-30 01:00:00 11.2 0 Calma 7 Este 3.2 -- -- 100
2020-08-30 00:00:00 11.5 0 Calma 12 Noroeste 1.6 -- -- 99
2020-08-29 23:00:00 11.3 0 Calma 9 Sur 0.4 -- -- 99
2020-08-29 22:00:00 11.7 3 Este 10 Nordeste 5 -- -- 98
2020-08-29 21:00:00 11.9 0 Calma 8 Nordeste 1.8 -- -- 98
2020-08-29 20:00:00 12.3 6 Nordeste 18 Nordeste 2.4 -- -- 93
2020-08-29 19:00:00 12.8 0 Calma 10 Nordeste 3.4 -- -- 97
2020-08-29 18:00:00 12.9 3 Sudoeste 18 Oeste 6 -- -- 97
2020-08-29 17:00:00 13.1 6 Noroeste 12 Oeste 6.6 -- -- 97
2020-08-29 16:00:00 13.4 0 Calma 21 Noroeste 7 -- -- 96
2020-08-29 15:00:00 14.5 8 Nordeste 13 Nordeste 3.8 -- -- 93
2020-08-29 14:00:00 14.1 2 Oeste 11 Norte 2.4 -- -- 94
2020-08-29 13:00:00 14.3 3 Este 8 Sur 1 -- -- 98
2020-08-29 12:00:00 13 0 Calma 8 Nordeste 2 -- -- 98
2020-08-29 11:00:00 12.5 5 Nordeste 9 Nordeste 3.8 -- -- 97
2020-08-29 10:00:00 12.4 5 Nordeste 10 Nordeste 1.6 -- -- 97
2020-08-29 09:00:00 12.5 6 Nordeste 8 Nordeste 0.4 -- -- 96
2020-08-29 08:00:00 12.4 5 Nordeste 8 Norte 0.8 -- -- 94
2020-08-29 07:00:00 12.3 4 Norte 8 Norte 0.2 -- -- 96
2020-08-29 06:00:00 13 0 Calma 9 Nordeste 0.4 -- -- 92
2020-08-29 05:00:00 12.7 3 Norte 10 Nordeste 0 -- -- 91
2020-08-29 04:00:00 13.1 4 Nordeste 9 Nordeste 0 -- -- 87
2020-08-29 03:00:00 12.9 6 Norte 10 Oeste 0 -- -- 85
2020-08-29 02:00:00 12.3 2 Norte 8 Nordeste 0 -- -- 92
2020-08-29 01:00:00 12.5 0 Calma 8 Este 0 -- -- 91
2020-08-29 00:00:00 11.2 3 Nordeste 7 Nordeste 0 -- -- 92
2020-08-28 23:00:00 13.3 5 Norte 12 Norte 0 -- -- 86
2020-08-28 22:00:00 13.9 4 Norte 12 Noroeste 0 -- -- 87
2020-08-28 21:00:00 15.2 5 Norte 13 Oeste 0.4 -- -- 81
2020-08-28 20:00:00 17.2 3 Nordeste 13 Sudoeste 0 -- -- 67
2020-08-28 19:00:00 18.2 5 Norte 18 Oeste 0 -- -- 65
2020-08-28 18:00:00 19 8 Sudoeste 23 Sudoeste 0 -- -- 65
2020-08-28 17:00:00 20.5 6 Oeste 23 Sudoeste 0 -- -- 61
2020-08-28 16:00:00 22 13 Sudoeste 30 Oeste 0 -- -- 56
2020-08-28 15:00:00 22.7 13 Sudoeste 33 Sudoeste 0 -- -- 55
2020-08-28 14:00:00 21 6 Sur 22 Sudoeste 0 -- -- 63
2020-08-28 13:00:00 21.1 6 Sudeste 13 Sudeste 0 -- -- 63
2020-08-28 12:00:00 17.9 5 Sur 13 Sudeste 0 -- -- 83
2020-08-28 11:00:00 15.8 5 Sudeste 12 Sudeste 0 -- -- 87
2020-08-28 10:00:00 15.3 0 Calma 8 Nordeste 0 -- -- 95
2020-08-28 09:00:00 14.6 5 Nordeste 16 Norte 0 -- -- 92
2020-08-28 08:00:00 15.3 2 Noroeste 5 Oeste 0 -- -- 97
2020-08-28 07:00:00 15.6 0 Calma 8 Nordeste 0.2 -- -- 95
2020-08-28 06:00:00 16 0 Calma 11 Noroeste 0.2 -- -- 97
2020-08-28 05:00:00 17.1 2 Oeste 9 Oeste 0.4 -- -- 97
2020-08-28 04:00:00 17.5 0 Calma 8 Norte 0 -- -- 97
2020-08-28 03:00:00 18 5 Norte 17 Norte 0.8 -- -- 94
2020-08-28 02:00:00 19.1 2 Noroeste 7 Noroeste 0.4 -- -- 97
2020-08-28 01:00:00 19.3 0 Calma 5 Noroeste 0 -- -- 96
2020-08-28 00:00:00 19.6 0 Calma 8 Noroeste 0 -- -- 95
2020-08-27 23:00:00 20.2 3 Sudeste 9 Noroeste 0 -- -- 89
2020-08-27 22:00:00 20.4 0 Calma 4 Nordeste 0 -- -- 90
2020-08-27 21:00:00 21 0 Calma 10 Norte 0 -- -- 85
2020-08-27 20:00:00 21.6 2 Nordeste 13 Norte 0 -- -- 83
2020-08-27 19:00:00 22 6 Noroeste 15 Norte 0 -- -- 81
2020-08-27 18:00:00 22.7 4 Sudeste 12 Oeste 0 -- -- 82
2020-08-27 17:00:00 23.3 6 Oeste 17 Oeste 0 -- -- 83
2020-08-27 16:00:00 24.4 9 Oeste 19 Sudoeste 0 -- -- 77
2020-08-27 15:00:00 25.8 8 Oeste 29 Oeste 0 -- -- 72
2020-08-27 14:00:00 27.5 8 Oeste 21 Sudoeste 0 -- -- 67
2020-08-27 13:00:00 27.1 7 Oeste 21 Este 0 -- -- 67
2020-08-27 12:00:00 26 9 Sudoeste 16 Sudoeste 0 -- -- 76
2020-08-27 11:00:00 23.9 4 Sudoeste 9 Este 0 -- -- 79
2020-08-27 10:00:00 20.8 2 Sudeste 5 Sur 0 -- -- 90
2020-08-27 09:00:00 18.9 2 Oeste 5 Oeste 0 -- -- 100
2020-08-27 08:00:00 17.1 0 Calma 6 Nordeste 0 -- -- 100
2020-08-27 07:00:00 17.2 4 Norte 6 Norte 0 -- -- 100
2020-08-27 06:00:00 17.7 0 Calma 5 Noroeste 0 -- -- 99
2020-08-27 05:00:00 18.8 0 Calma 3 Nordeste 0 -- -- 97
2020-08-27 04:00:00 19.2 0 Calma 4 Sudoeste 0 -- -- 100
2020-08-27 03:00:00 18.7 0 Calma 3 Noroeste 0 -- -- 100
2020-08-27 02:00:00 18.5 0 Calma 3 Este 0 -- -- 97
2020-08-27 01:00:00 19.8 0 Calma 3 Sudoeste 0 -- -- 97
2020-08-27 00:00:00 19.6 0 Calma 4 Nordeste 0 -- -- 97
2020-08-26 23:00:00 20.5 0 Calma 3 Nordeste 0 -- -- 93
2020-08-26 22:00:00 21.6 0 Calma 3 Nordeste 0 -- -- 90
2020-08-26 21:00:00 22.9 0 Calma 6 Oeste 0 -- -- 84
2020-08-26 20:00:00 23.4 3 Sudoeste 8 Sudoeste 0 -- -- 83
2020-08-26 19:00:00 23.6 4 Sudoeste 12 Sudoeste 0 -- -- 81
2020-08-26 18:00:00 23.8 5 Oeste 22 Oeste 0 -- -- 80
2020-08-26 17:00:00 25.7 12 Oeste 26 Oeste 0 -- -- 72
2020-08-26 16:00:00 25.5 9 Noroeste 18 Oeste 0 -- -- 73
2020-08-26 15:00:00 28 7 Norte 23 Oeste 0 -- -- 64
2020-08-26 14:00:00 27.3 8 Sudoeste 22 Oeste 0 -- -- 62
2020-08-26 13:00:00 26.3 7 Oeste 18 Oeste 0 -- -- 66
2020-08-26 12:00:00 24.9 8 Sudoeste 14 Sudoeste 0 -- -- 69
2020-08-26 11:00:00 22.3 5 Oeste 8 Oeste 0 -- -- 78
2020-08-26 10:00:00 20.2 0 Calma 17 Este 0 -- -- 85
2020-08-26 09:00:00 18 6 Sudeste 19 Sudeste 0 -- -- 91
2020-08-26 08:00:00 17.2 0 Calma 6 Oeste 0 -- -- 95
2020-08-26 07:00:00 17.6 0 Calma 4 Nordeste 0 -- -- 96
2020-08-26 06:00:00 17.7 0 Calma 3 Sudoeste 0 -- -- 96
2020-08-26 05:00:00 18.3 0 Calma 4 Oeste 0 -- -- 93
2020-08-26 04:00:00 19.1 0 Calma 2 Norte 0 -- -- 94
2020-08-26 03:00:00 19.2 0 Calma 2 Norte 0 -- -- 94
2020-08-26 02:00:00 19.3 0 Calma 3 Noroeste 0 -- -- 94
2020-08-26 01:00:00 19.5 0 Calma 3 Nordeste 0 -- -- 92
2020-08-26 00:00:00 19.4 0 Calma 2 Este 0 -- -- 93
2020-08-25 23:00:00 19.1 0 Calma 5 Nordeste 0 -- -- 92
2020-08-25 22:00:00 20.2 3 Nordeste 9 Sudoeste 0 -- -- 86
2020-08-25 21:00:00 21.1 3 Sudoeste 15 Nordeste 0 -- -- 81
2020-08-25 20:00:00 23.4 5 Oeste 16 Oeste 0 -- -- 70
2020-08-25 19:00:00 25.7 7 Oeste 21 Noroeste 0 -- -- 61
2020-08-25 18:00:00 26.5 9 Noroeste 27 Oeste 0 -- -- 58
2020-08-25 17:00:00 28 12 Oeste 25 Oeste 0 -- -- 55
2020-08-25 16:00:00 28.7 8 Noroeste 19 Oeste 0 -- -- 53
2020-08-25 15:00:00 28.4 10 Oeste 24 Oeste 0 -- -- 52
2020-08-25 14:00:00 28.4 10 Sudoeste 21 Oeste 0 -- -- 51
2020-08-25 13:00:00 26.8 7 Este 18 Oeste 0 -- -- 55
2020-08-25 12:00:00 24.6 7 Sudoeste 13 Sudoeste 0 -- -- 66
2020-08-25 11:00:00 22.2 3 Sudoeste 6 Sudoeste 0 -- -- 70
2020-08-25 10:00:00 18.3 3 Sur 9 Sur 0 -- -- 81
2020-08-25 09:00:00 15.4 5 Oeste 10 Noroeste 0 -- -- 91
2020-08-25 08:00:00 13.6 0 Calma 4 Nordeste 0 -- -- 98
2020-08-25 07:00:00 13.9 0 Calma 5 Nordeste 0 -- -- 97
2020-08-25 06:00:00 14.3 2 Norte 6 Nordeste 0 -- -- 97
2020-08-25 05:00:00 14.6 0 Calma 4 Nordeste 0 -- -- 97
2020-08-25 04:00:00 14.8 0 Calma 4 Este 0 -- -- 98
2020-08-25 03:00:00 15.4 0 Calma 5 Nordeste 0 -- -- 98
2020-08-25 02:00:00 15.9 0 Calma 5 Nordeste 0 -- -- 97
2020-08-25 01:00:00 16.3 0 Calma 5 Nordeste 0 -- -- 97
2020-08-25 00:00:00 16.8 0 Calma 5 Nordeste 0 -- -- 97
2020-08-24 23:00:00 16.8 2 Norte 4 Norte 0 -- -- 96
2020-08-24 22:00:00 17.5 2 Norte 3 Nordeste 0 -- -- 92
2020-08-24 21:00:00 20 2 Este 11 Sudoeste 0 -- -- 84
2020-08-24 20:00:00 24 7 Sudoeste 16 Oeste 0 -- -- 70
2020-08-24 19:00:00 25.1 9 Oeste 21 Oeste 0 -- -- 65
2020-08-24 18:00:00 26.5 8 Oeste 24 Oeste 0 -- -- 61
2020-08-24 17:00:00 26.9 10 Sudoeste 23 Sudoeste 0 -- -- 60
2020-08-24 16:00:00 26.5 8 Oeste 29 Sudoeste 0 -- -- 62
2020-08-24 15:00:00 25.6 9 Oeste 21 Oeste 0 -- -- 60
2020-08-24 14:00:00 24.7 11 Sudoeste 26 Oeste 0 -- -- 62
2020-08-24 13:00:00 23 7 Sudoeste 18 Oeste 0 -- -- 68
2020-08-24 12:00:00 22.5 7 Sudoeste 14 Sudoeste 0 -- -- 73
2020-08-24 11:00:00 20.1 5 Oeste 11 Sudoeste 0 -- -- 79
2020-08-24 10:00:00 17.2 0 Calma 6 Este 0 -- -- 92
2020-08-24 09:00:00 16.5 2 Noroeste 6 Noroeste 0 -- -- 97
2020-08-24 08:00:00 16.4 0 Calma 3 Norte 0 -- -- 97
2020-08-24 07:00:00 16.2 0 Calma 3 Noroeste 0 -- -- 98
2020-08-24 06:00:00 16.4 0 Calma 3 Norte 0 -- -- 96
2020-08-24 05:00:00 16.8 0 Calma 3 Noroeste 0 -- -- 96
2020-08-24 04:00:00 16.8 0 Calma 3 Noroeste 0 -- -- 96
2020-08-24 03:00:00 16.9 0 Calma 3 Nordeste 0 -- -- 96
2020-08-24 02:00:00 17 0 Calma 3 Norte 0 -- -- 96
2020-08-24 01:00:00 17.2 0 Calma 5 Noroeste 0 -- -- 95
2020-08-24 00:00:00 17.6 0 Calma 4 Noroeste 0 -- -- 91